sensor_id;sensor_type;location;lat;lon;timestamp;P1;durP1;ratioP1;P2;durP2;ratioP2
3591;SDS011;1810;48.720;9.094;2023-09-18T00:01:03;754.10;;;705.72;;
3591;SDS011;1810;48.720;9.094;2023-09-18T00:03:33;788.85;;;737.55;;
3591;SDS011;1810;48.720;9.094;2023-09-18T00:06:02;778.78;;;728.50;;
3591;SDS011;1810;48.720;9.094;2023-09-18T00:08:31;765.67;;;715.70;;
3591;SDS011;1810;48.720;9.094;2023-09-18T00:11:00;774.00;;;723.75;;
3591;SDS011;1810;48.720;9.094;2023-09-18T00:13:29;776.83;;;726.40;;
3591;SDS011;1810;48.720;9.094;2023-09-18T00:15:59;787.42;;;736.67;;
3591;SDS011;1810;48.720;9.094;2023-09-18T00:18:33;777.22;;;726.58;;
3591;SDS011;1810;48.720;9.094;2023-09-18T00:21:02;787.33;;;736.42;;
3591;SDS011;1810;48.720;9.094;2023-09-18T00:23:30;785.25;;;733.97;;
3591;SDS011;1810;48.720;9.094;2023-09-18T00:26:02;786.33;;;735.22;;
3591;SDS011;1810;48.720;9.094;2023-09-18T00:28:31;775.60;;;725.20;;
3591;SDS011;1810;48.720;9.094;2023-09-18T00:31:01;783.78;;;732.53;;
3591;SDS011;1810;48.720;9.094;2023-09-18T00:33:29;793.65;;;741.63;;
3591;SDS011;1810;48.720;9.094;2023-09-18T00:35:59;795.45;;;743.42;;
3591;SDS011;1810;48.720;9.094;2023-09-18T00:38:28;796.03;;;744.05;;
3591;SDS011;1810;48.720;9.094;2023-09-18T00:40:59;786.85;;;735.13;;
3591;SDS011;1810;48.720;9.094;2023-09-18T00:43:29;788.78;;;737.30;;
3591;SDS011;1810;48.720;9.094;2023-09-18T00:46:01;802.80;;;750.47;;
3591;SDS011;1810;48.720;9.094;2023-09-18T00:48:29;793.67;;;741.65;;
3591;SDS011;1810;48.720;9.094;2023-09-18T00:51:00;804.22;;;751.38;;
3591;SDS011;1810;48.720;9.094;2023-09-18T00:53:30;794.72;;;742.53;;
3591;SDS011;1810;48.720;9.094;2023-09-18T00:56:00;798.90;;;746.28;;
3591;SDS011;1810;48.720;9.094;2023-09-18T00:58:29;802.90;;;749.70;;
3591;SDS011;1810;48.720;9.094;2023-09-18T01:00:57;809.47;;;755.97;;
3591;SDS011;1810;48.720;9.094;2023-09-18T01:03:27;822.88;;;768.25;;
3591;SDS011;1810;48.720;9.094;2023-09-18T01:05:56;830.83;;;775.63;;
3591;SDS011;1810;48.720;9.094;2023-09-18T01:08:25;842.42;;;785.65;;
3591;SDS011;1810;48.720;9.094;2023-09-18T01:10:56;851.95;;;794.55;;
3591;SDS011;1810;48.720;9.094;2023-09-18T01:13:33;842.83;;;785.22;;
3591;SDS011;1810;48.720;9.094;2023-09-18T01:16:06;857.83;;;799.55;;
3591;SDS011;1810;48.720;9.094;2023-09-18T01:18:39;874.70;;;814.72;;
3591;SDS011;1810;48.720;9.094;2023-09-18T01:21:18;876.97;;;816.97;;
3591;SDS011;1810;48.720;9.094;2023-09-18T01:23:48;867.67;;;808.80;;
3591;SDS011;1810;48.720;9.094;2023-09-18T01:26:18;862.78;;;804.33;;
3591;SDS011;1810;48.720;9.094;2023-09-18T01:28:46;870.50;;;810.78;;
3591;SDS011;1810;48.720;9.094;2023-09-18T01:31:15;869.75;;;810.17;;
3591;SDS011;1810;48.720;9.094;2023-09-18T01:33:45;865.83;;;806.30;;
3591;SDS011;1810;48.720;9.094;2023-09-18T01:36:14;882.63;;;822.00;;
3591;SDS011;1810;48.720;9.094;2023-09-18T01:38:45;886.15;;;824.85;;
3591;SDS011;1810;48.720;9.094;2023-09-18T01:41:15;890.22;;;827.85;;
3591;SDS011;1810;48.720;9.094;2023-09-18T01:43:44;892.42;;;830.75;;
3591;SDS011;1810;48.720;9.094;2023-09-18T01:46:13;896.13;;;834.03;;
3591;SDS011;1810;48.720;9.094;2023-09-18T01:48:45;899.53;;;836.80;;
3591;SDS011;1810;48.720;9.094;2023-09-18T01:51:14;899.38;;;836.40;;
3591;SDS011;1810;48.720;9.094;2023-09-18T01:53:43;892.72;;;830.50;;
3591;SDS011;1810;48.720;9.094;2023-09-18T01:56:12;883.72;;;822.92;;
3591;SDS011;1810;48.720;9.094;2023-09-18T01:58:42;826.25;;;771.20;;
3591;SDS011;1810;48.720;9.094;2023-09-18T02:01:11;785.15;;;733.35;;
3591;SDS011;1810;48.720;9.094;2023-09-18T02:03:40;677.92;;;637.40;;
3591;SDS011;1810;48.720;9.094;2023-09-18T02:06:28;617.35;;;582.63;;
3591;SDS011;1810;48.720;9.094;2023-09-18T02:08:57;584.60;;;552.50;;
3591;SDS011;1810;48.720;9.094;2023-09-18T02:11:27;521.22;;;493.95;;
3591;SDS011;1810;48.720;9.094;2023-09-18T02:13:57;515.97;;;489.20;;
3591;SDS011;1810;48.720;9.094;2023-09-18T02:16:25;497.77;;;472.85;;
3591;SDS011;1810;48.720;9.094;2023-09-18T02:18:54;415.00;;;394.63;;
3591;SDS011;1810;48.720;9.094;2023-09-18T02:21:23;391.00;;;371.67;;
3591;SDS011;1810;48.720;9.094;2023-09-18T02:23:52;351.00;;;334.00;;
3591;SDS011;1810;48.720;9.094;2023-09-18T02:26:21;327.85;;;312.40;;
3591;SDS011;1810;48.720;9.094;2023-09-18T02:28:51;277.90;;;265.33;;
3591;SDS011;1810;48.720;9.094;2023-09-18T02:31:21;290.23;;;277.48;;
3591;SDS011;1810;48.720;9.094;2023-09-18T02:33:50;531.58;;;504.23;;
3591;SDS011;1810;48.720;9.094;2023-09-18T02:36:19;555.83;;;526.90;;
3591;SDS011;1810;48.720;9.094;2023-09-18T02:38:47;571.05;;;540.55;;
3591;SDS011;1810;48.720;9.094;2023-09-18T02:41:17;585.05;;;553.95;;
3591;SDS011;1810;48.720;9.094;2023-09-18T02:43:45;591.33;;;559.42;;
3591;SDS011;1810;48.720;9.094;2023-09-18T02:46:14;578.53;;;547.42;;
3591;SDS011;1810;48.720;9.094;2023-09-18T02:48:44;576.45;;;545.28;;
3591;SDS011;1810;48.720;9.094;2023-09-18T02:51:13;570.03;;;539.78;;
3591;SDS011;1810;48.720;9.094;2023-09-18T02:53:41;538.40;;;510.40;;
3591;SDS011;1810;48.720;9.094;2023-09-18T02:56:10;488.58;;;463.70;;
3591;SDS011;1810;48.720;9.094;2023-09-18T02:58:38;567.13;;;537.53;;
3591;SDS011;1810;48.720;9.094;2023-09-18T03:01:07;387.30;;;368.58;;
3591;SDS011;1810;48.720;9.094;2023-09-18T03:03:36;327.88;;;313.00;;
3591;SDS011;1810;48.720;9.094;2023-09-18T03:06:06;401.13;;;381.52;;
3591;SDS011;1810;48.720;9.094;2023-09-18T03:08:35;401.55;;;382.20;;
3591;SDS011;1810;48.720;9.094;2023-09-18T03:11:10;387.58;;;369.02;;
3591;SDS011;1810;48.720;9.094;2023-09-18T03:13:42;527.15;;;498.77;;
3591;SDS011;1810;48.720;9.094;2023-09-18T03:16:13;578.03;;;547.40;;
3591;SDS011;1810;48.720;9.094;2023-09-18T03:18:41;548.72;;;518.90;;
3591;SDS011;1810;48.720;9.094;2023-09-18T03:21:11;527.65;;;500.23;;
3591;SDS011;1810;48.720;9.094;2023-09-18T03:23:40;564.60;;;535.08;;
3591;SDS011;1810;48.720;9.094;2023-09-18T03:26:09;586.10;;;554.63;;
3591;SDS011;1810;48.720;9.094;2023-09-18T03:28:42;571.10;;;540.60;;
3591;SDS011;1810;48.720;9.094;2023-09-18T03:31:10;594.05;;;561.92;;
3591;SDS011;1810;48.720;9.094;2023-09-18T03:33:40;594.05;;;562.42;;
3591;SDS011;1810;48.720;9.094;2023-09-18T03:36:16;627.70;;;592.03;;
3591;SDS011;1810;48.720;9.094;2023-09-18T03:38:47;574.72;;;544.20;;
3591;SDS011;1810;48.720;9.094;2023-09-18T03:41:19;592.03;;;560.50;;
3591;SDS011;1810;48.720;9.094;2023-09-18T03:43:52;614.08;;;579.13;;
3591;SDS011;1810;48.720;9.094;2023-09-18T03:46:22;592.67;;;560.88;;
3591;SDS011;1810;48.720;9.094;2023-09-18T03:48:51;589.38;;;557.90;;
3591;SDS011;1810;48.720;9.094;2023-09-18T03:51:27;569.53;;;538.88;;
3591;SDS011;1810;48.720;9.094;2023-09-18T03:53:56;585.10;;;553.50;;
3591;SDS011;1810;48.720;9.094;2023-09-18T03:56:25;579.38;;;548.47;;
3591;SDS011;1810;48.720;9.094;2023-09-18T03:58:56;580.88;;;549.90;;
3591;SDS011;1810;48.720;9.094;2023-09-18T04:01:32;588.50;;;557.00;;
3591;SDS011;1810;48.720;9.094;2023-09-18T04:04:18;577.55;;;546.97;;
3591;SDS011;1810;48.720;9.094;2023-09-18T04:06:57;586.47;;;555.20;;
3591;SDS011;1810;48.720;9.094;2023-09-18T04:09:55;583.30;;;552.30;;
3591;SDS011;1810;48.720;9.094;2023-09-18T04:15:26;590.88;;;558.92;;
3591;SDS011;1810;48.720;9.094;2023-09-18T04:18:17;576.97;;;546.17;;
3591;SDS011;1810;48.720;9.094;2023-09-18T04:20:48;542.08;;;513.40;;
3591;SDS011;1810;48.720;9.094;2023-09-18T04:23:31;571.10;;;541.13;;
3591;SDS011;1810;48.720;9.094;2023-09-18T04:26:03;537.75;;;509.63;;
3591;SDS011;1810;48.720;9.094;2023-09-18T04:28:34;561.03;;;531.58;;
3591;SDS011;1810;48.720;9.094;2023-09-18T04:31:05;583.95;;;551.97;;
3591;SDS011;1810;48.720;9.094;2023-09-18T04:36:13;578.50;;;547.60;;
3591;SDS011;1810;48.720;9.094;2023-09-18T04:38:43;577.60;;;546.88;;
3591;SDS011;1810;48.720;9.094;2023-09-18T04:41:14;616.20;;;581.88;;
3591;SDS011;1810;48.720;9.094;2023-09-18T04:43:43;601.10;;;567.42;;
3591;SDS011;1810;48.720;9.094;2023-09-18T04:46:12;596.05;;;563.10;;
3591;SDS011;1810;48.720;9.094;2023-09-18T04:48:41;649.55;;;611.88;;
3591;SDS011;1810;48.720;9.094;2023-09-18T04:51:09;729.90;;;684.90;;
3591;SDS011;1810;48.720;9.094;2023-09-18T04:53:39;704.22;;;660.53;;
3591;SDS011;1810;48.720;9.094;2023-09-18T04:56:10;695.38;;;653.50;;
3591;SDS011;1810;48.720;9.094;2023-09-18T04:58:38;796.00;;;743.95;;
3591;SDS011;1810;48.720;9.094;2023-09-18T05:01:07;717.97;;;672.80;;
3591;SDS011;1810;48.720;9.094;2023-09-18T05:03:37;681.08;;;640.45;;
3591;SDS011;1810;48.720;9.094;2023-09-18T05:06:09;687.53;;;646.15;;
3591;SDS011;1810;48.720;9.094;2023-09-18T05:08:44;679.05;;;638.35;;
3591;SDS011;1810;48.720;9.094;2023-09-18T05:11:22;626.95;;;591.60;;
3591;SDS011;1810;48.720;9.094;2023-09-18T05:13:51;643.42;;;605.95;;
3591;SDS011;1810;48.720;9.094;2023-09-18T05:16:20;629.33;;;593.28;;
3591;SDS011;1810;48.720;9.094;2023-09-18T05:18:49;598.67;;;565.85;;
3591;SDS011;1810;48.720;9.094;2023-09-18T05:21:18;572.08;;;541.58;;
3591;SDS011;1810;48.720;9.094;2023-09-18T05:23:51;564.05;;;534.20;;
3591;SDS011;1810;48.720;9.094;2023-09-18T05:26:22;576.92;;;546.38;;
3591;SDS011;1810;48.720;9.094;2023-09-18T05:28:54;584.25;;;553.05;;
3591;SDS011;1810;48.720;9.094;2023-09-18T05:31:24;577.20;;;546.53;;
3591;SDS011;1810;48.720;9.094;2023-09-18T05:33:57;573.33;;;543.13;;
3591;SDS011;1810;48.720;9.094;2023-09-18T05:36:28;583.53;;;552.03;;
3591;SDS011;1810;48.720;9.094;2023-09-18T05:39:00;647.83;;;608.35;;
3591;SDS011;1810;48.720;9.094;2023-09-18T05:41:42;632.88;;;596.70;;
3591;SDS011;1810;48.720;9.094;2023-09-18T05:44:22;592.10;;;560.28;;
3591;SDS011;1810;48.720;9.094;2023-09-18T05:46:54;591.22;;;558.50;;
3591;SDS011;1810;48.720;9.094;2023-09-18T05:49:24;644.03;;;606.67;;
3591;SDS011;1810;48.720;9.094;2023-09-18T05:51:53;579.63;;;548.80;;
3591;SDS011;1810;48.720;9.094;2023-09-18T05:54:23;565.83;;;535.85;;
3591;SDS011;1810;48.720;9.094;2023-09-18T05:56:53;558.63;;;529.45;;
3591;SDS011;1810;48.720;9.094;2023-09-18T05:59:21;634.53;;;598.70;;
3591;SDS011;1810;48.720;9.094;2023-09-18T06:01:50;561.00;;;531.45;;
3591;SDS011;1810;48.720;9.094;2023-09-18T06:04:20;578.95;;;548.33;;
3591;SDS011;1810;48.720;9.094;2023-09-18T06:06:50;595.78;;;563.42;;
3591;SDS011;1810;48.720;9.094;2023-09-18T06:09:19;550.75;;;522.00;;
3591;SDS011;1810;48.720;9.094;2023-09-18T06:11:48;608.58;;;575.78;;
3591;SDS011;1810;48.720;9.094;2023-09-18T06:14:18;571.75;;;541.15;;
3591;SDS011;1810;48.720;9.094;2023-09-18T06:16:47;561.50;;;532.03;;
3591;SDS011;1810;48.720;9.094;2023-09-18T06:19:17;583.92;;;552.33;;
3591;SDS011;1810;48.720;9.094;2023-09-18T06:21:46;569.60;;;539.97;;
3591;SDS011;1810;48.720;9.094;2023-09-18T06:24:15;551.65;;;521.92;;
3591;SDS011;1810;48.720;9.094;2023-09-18T06:26:43;540.28;;;511.25;;
3591;SDS011;1810;48.720;9.094;2023-09-18T06:29:13;525.80;;;498.23;;
3591;SDS011;1810;48.720;9.094;2023-09-18T06:31:43;550.80;;;521.78;;
3591;SDS011;1810;48.720;9.094;2023-09-18T06:34:14;543.60;;;515.42;;
3591;SDS011;1810;48.720;9.094;2023-09-18T06:36:46;493.00;;;468.20;;
3591;SDS011;1810;48.720;9.094;2023-09-18T06:39:15;479.67;;;454.35;;
3591;SDS011;1810;48.720;9.094;2023-09-18T06:41:44;447.90;;;425.52;;
3591;SDS011;1810;48.720;9.094;2023-09-18T06:44:13;484.75;;;458.65;;
3591;SDS011;1810;48.720;9.094;2023-09-18T06:46:43;446.17;;;424.27;;
3591;SDS011;1810;48.720;9.094;2023-09-18T06:49:11;461.52;;;437.23;;
3591;SDS011;1810;48.720;9.094;2023-09-18T06:51:40;534.35;;;506.90;;
3591;SDS011;1810;48.720;9.094;2023-09-18T06:54:09;511.38;;;484.73;;
3591;SDS011;1810;48.720;9.094;2023-09-18T06:56:38;567.25;;;537.30;;
3591;SDS011;1810;48.720;9.094;2023-09-18T06:59:08;566.05;;;536.15;;
3591;SDS011;1810;48.720;9.094;2023-09-18T07:01:37;562.25;;;532.65;;
3591;SDS011;1810;48.720;9.094;2023-09-18T07:04:07;575.55;;;544.97;;
3591;SDS011;1810;48.720;9.094;2023-09-18T07:06:37;599.55;;;566.85;;
3591;SDS011;1810;48.720;9.094;2023-09-18T07:09:05;564.78;;;535.25;;
3591;SDS011;1810;48.720;9.094;2023-09-18T07:11:34;581.10;;;550.55;;
3591;SDS011;1810;48.720;9.094;2023-09-18T07:14:03;579.95;;;548.83;;
3591;SDS011;1810;48.720;9.094;2023-09-18T07:16:33;569.83;;;539.40;;
3591;SDS011;1810;48.720;9.094;2023-09-18T07:19:01;668.53;;;628.83;;
3591;SDS011;1810;48.720;9.094;2023-09-18T07:21:32;765.78;;;716.38;;
3591;SDS011;1810;48.720;9.094;2023-09-18T07:24:01;866.60;;;807.00;;
3591;SDS011;1810;48.720;9.094;2023-09-18T07:26:30;773.22;;;723.35;;
3591;SDS011;1810;48.720;9.094;2023-09-18T07:28:59;784.38;;;733.33;;
3591;SDS011;1810;48.720;9.094;2023-09-18T07:31:29;816.03;;;761.97;;
3591;SDS011;1810;48.720;9.094;2023-09-18T07:33:58;778.08;;;727.65;;
3591;SDS011;1810;48.720;9.094;2023-09-18T07:36:27;778.28;;;727.78;;
3591;SDS011;1810;48.720;9.094;2023-09-18T07:38:57;756.13;;;707.22;;
3591;SDS011;1810;48.720;9.094;2023-09-18T07:41:25;795.55;;;743.53;;
3591;SDS011;1810;48.720;9.094;2023-09-18T07:44:07;811.03;;;756.20;;
3591;SDS011;1810;48.720;9.094;2023-09-18T07:46:36;785.28;;;733.78;;
3591;SDS011;1810;48.720;9.094;2023-09-18T07:49:05;777.38;;;726.65;;
3591;SDS011;1810;48.720;9.094;2023-09-18T07:51:33;798.83;;;746.08;;
3591;SDS011;1810;48.720;9.094;2023-09-18T07:54:15;847.10;;;789.83;;
3591;SDS011;1810;48.720;9.094;2023-09-18T07:56:45;783.28;;;732.67;;
3591;SDS011;1810;48.720;9.094;2023-09-18T07:59:20;803.28;;;749.72;;
3591;SDS011;1810;48.720;9.094;2023-09-18T08:01:51;784.17;;;733.00;;
3591;SDS011;1810;48.720;9.094;2023-09-18T08:04:22;836.50;;;779.88;;
3591;SDS011;1810;48.720;9.094;2023-09-18T08:06:52;780.78;;;729.85;;
3591;SDS011;1810;48.720;9.094;2023-09-18T08:09:26;789.28;;;737.70;;
3591;SDS011;1810;48.720;9.094;2023-09-18T08:11:58;814.17;;;759.83;;
3591;SDS011;1810;48.720;9.094;2023-09-18T08:14:28;781.50;;;731.08;;
3591;SDS011;1810;48.720;9.094;2023-09-18T08:16:57;776.20;;;726.00;;
3591;SDS011;1810;48.720;9.094;2023-09-18T08:19:26;797.55;;;745.20;;
3591;SDS011;1810;48.720;9.094;2023-09-18T08:21:55;760.85;;;711.92;;
3591;SDS011;1810;48.720;9.094;2023-09-18T08:24:24;764.30;;;715.13;;
3591;SDS011;1810;48.720;9.094;2023-09-18T08:26:54;791.40;;;740.28;;
3591;SDS011;1810;48.720;9.094;2023-09-18T08:29:23;780.17;;;730.13;;
3591;SDS011;1810;48.720;9.094;2023-09-18T08:31:52;716.88;;;672.53;;
3591;SDS011;1810;48.720;9.094;2023-09-18T08:34:21;704.15;;;661.95;;
3591;SDS011;1810;48.720;9.094;2023-09-18T08:36:54;656.40;;;618.33;;
3591;SDS011;1810;48.720;9.094;2023-09-18T08:39:23;666.13;;;626.95;;
3591;SDS011;1810;48.720;9.094;2023-09-18T08:41:54;676.53;;;636.58;;
3591;SDS011;1810;48.720;9.094;2023-09-18T08:44:26;680.00;;;638.65;;
3591;SDS011;1810;48.720;9.094;2023-09-18T08:46:56;622.58;;;587.80;;
3591;SDS011;1810;48.720;9.094;2023-09-18T08:49:26;613.05;;;579.90;;
3591;SDS011;1810;48.720;9.094;2023-09-18T08:51:55;576.85;;;545.33;;
3591;SDS011;1810;48.720;9.094;2023-09-18T08:54:29;478.88;;;454.95;;
3591;SDS011;1810;48.720;9.094;2023-09-18T08:57:01;367.45;;;350.13;;
3591;SDS011;1810;48.720;9.094;2023-09-18T08:59:34;352.77;;;336.52;;
3591;SDS011;1810;48.720;9.094;2023-09-18T09:02:03;309.00;;;295.52;;
3591;SDS011;1810;48.720;9.094;2023-09-18T09:04:32;389.27;;;371.15;;
3591;SDS011;1810;48.720;9.094;2023-09-18T09:07:02;338.75;;;323.30;;
3591;SDS011;1810;48.720;9.094;2023-09-18T09:09:31;363.65;;;346.50;;
3591;SDS011;1810;48.720;9.094;2023-09-18T09:12:01;329.23;;;314.17;;
3591;SDS011;1810;48.720;9.094;2023-09-18T09:15:02;360.75;;;344.08;;
3591;SDS011;1810;48.720;9.094;2023-09-18T09:18:03;312.08;;;297.90;;
3591;SDS011;1810;48.720;9.094;2023-09-18T09:20:52;289.77;;;276.98;;
3591;SDS011;1810;48.720;9.094;2023-09-18T09:23:24;297.10;;;283.95;;
3591;SDS011;1810;48.720;9.094;2023-09-18T09:25:54;426.90;;;406.38;;
3591;SDS011;1810;48.720;9.094;2023-09-18T09:28:42;336.35;;;321.33;;
3591;SDS011;1810;48.720;9.094;2023-09-18T09:31:11;417.67;;;397.80;;
3591;SDS011;1810;48.720;9.094;2023-09-18T09:33:43;439.95;;;418.48;;
3591;SDS011;1810;48.720;9.094;2023-09-18T09:36:19;445.35;;;423.75;;
3591;SDS011;1810;48.720;9.094;2023-09-18T09:38:49;500.25;;;474.85;;
3591;SDS011;1810;48.720;9.094;2023-09-18T09:41:26;486.95;;;462.65;;
3591;SDS011;1810;48.720;9.094;2023-09-18T09:43:59;497.60;;;472.92;;
3591;SDS011;1810;48.720;9.094;2023-09-18T09:46:27;432.42;;;411.33;;
3591;SDS011;1810;48.720;9.094;2023-09-18T09:49:00;532.65;;;505.05;;
3591;SDS011;1810;48.720;9.094;2023-09-18T09:51:30;559.05;;;529.97;;
3591;SDS011;1810;48.720;9.094;2023-09-18T09:53:59;547.63;;;519.40;;
3591;SDS011;1810;48.720;9.094;2023-09-18T09:56:40;551.28;;;523.35;;
3591;SDS011;1810;48.720;9.094;2023-09-18T09:59:11;542.08;;;514.20;;
3591;SDS011;1810;48.720;9.094;2023-09-18T10:01:40;533.83;;;506.77;;
3591;SDS011;1810;48.720;9.094;2023-09-18T10:04:12;526.25;;;499.35;;
3591;SDS011;1810;48.720;9.094;2023-09-18T10:06:44;631.92;;;595.72;;
3591;SDS011;1810;48.720;9.094;2023-09-18T10:09:15;712.80;;;668.50;;
3591;SDS011;1810;48.720;9.094;2023-09-18T10:11:45;726.95;;;681.90;;
3591;SDS011;1810;48.720;9.094;2023-09-18T10:14:19;758.88;;;709.90;;
3591;SDS011;1810;48.720;9.094;2023-09-18T10:16:49;1147.50;;;916.63;;
3591;SDS011;1810;48.720;9.094;2023-09-18T10:19:22;740.42;;;693.83;;
3591;SDS011;1810;48.720;9.094;2023-09-18T10:21:57;788.72;;;737.20;;
3591;SDS011;1810;48.720;9.094;2023-09-18T10:24:37;621.20;;;585.92;;
3591;SDS011;1810;48.720;9.094;2023-09-18T10:27:07;599.05;;;565.10;;
3591;SDS011;1810;48.720;9.094;2023-09-18T10:29:39;553.30;;;524.30;;
3591;SDS011;1810;48.720;9.094;2023-09-18T10:32:10;542.67;;;514.65;;
3591;SDS011;1810;48.720;9.094;2023-09-18T10:34:40;689.20;;;647.55;;
3591;SDS011;1810;48.720;9.094;2023-09-18T10:37:09;555.47;;;526.75;;
3591;SDS011;1810;48.720;9.094;2023-09-18T10:39:49;534.70;;;507.27;;
3591;SDS011;1810;48.720;9.094;2023-09-18T10:42:19;513.72;;;487.48;;
3591;SDS011;1810;48.720;9.094;2023-09-18T10:45:02;514.55;;;488.10;;
3591;SDS011;1810;48.720;9.094;2023-09-18T10:47:46;523.50;;;496.98;;
3591;SDS011;1810;48.720;9.094;2023-09-18T10:50:22;507.42;;;482.13;;
3591;SDS011;1810;48.720;9.094;2023-09-18T10:52:56;556.30;;;527.30;;
3591;SDS011;1810;48.720;9.094;2023-09-18T10:55:28;548.20;;;519.90;;
3591;SDS011;1810;48.720;9.094;2023-09-18T10:57:59;559.55;;;529.40;;
3591;SDS011;1810;48.720;9.094;2023-09-18T11:00:31;546.75;;;518.40;;
3591;SDS011;1810;48.720;9.094;2023-09-18T11:03:09;530.53;;;503.30;;
3591;SDS011;1810;48.720;9.094;2023-09-18T11:05:45;556.47;;;527.33;;
3591;SDS011;1810;48.720;9.094;2023-09-18T11:08:28;546.80;;;518.55;;
3591;SDS011;1810;48.720;9.094;2023-09-18T11:11:01;563.13;;;533.72;;
3591;SDS011;1810;48.720;9.094;2023-09-18T11:13:38;531.60;;;504.27;;
3591;SDS011;1810;48.720;9.094;2023-09-18T11:16:32;539.75;;;511.85;;
3591;SDS011;1810;48.720;9.094;2023-09-18T11:19:07;538.88;;;511.25;;
3591;SDS011;1810;48.720;9.094;2023-09-18T11:21:37;532.70;;;505.50;;
3591;SDS011;1810;48.720;9.094;2023-09-18T11:24:07;590.60;;;558.45;;
3591;SDS011;1810;48.720;9.094;2023-09-18T11:26:44;513.72;;;487.98;;
3591;SDS011;1810;48.720;9.094;2023-09-18T11:29:14;544.22;;;515.95;;
3591;SDS011;1810;48.720;9.094;2023-09-18T11:31:47;578.20;;;547.40;;
3591;SDS011;1810;48.720;9.094;2023-09-18T11:34:22;575.15;;;544.05;;
3591;SDS011;1810;48.720;9.094;2023-09-18T11:36:52;592.85;;;560.78;;
3591;SDS011;1810;48.720;9.094;2023-09-18T11:39:35;661.70;;;622.70;;
3591;SDS011;1810;48.720;9.094;2023-09-18T11:42:08;630.38;;;594.65;;
3591;SDS011;1810;48.720;9.094;2023-09-18T11:44:38;545.45;;;516.47;;
3591;SDS011;1810;48.720;9.094;2023-09-18T11:47:15;608.95;;;575.42;;
3591;SDS011;1810;48.720;9.094;2023-09-18T11:49:51;548.15;;;519.35;;
3591;SDS011;1810;48.720;9.094;2023-09-18T11:52:25;592.95;;;560.78;;
3591;SDS011;1810;48.720;9.094;2023-09-18T11:54:57;573.50;;;542.47;;
3591;SDS011;1810;48.720;9.094;2023-09-18T11:57:27;643.03;;;606.03;;
3591;SDS011;1810;48.720;9.094;2023-09-18T11:59:56;687.10;;;645.47;;
3591;SDS011;1810;48.720;9.094;2023-09-18T12:02:40;668.95;;;629.50;;
3591;SDS011;1810;48.720;9.094;2023-09-18T12:05:13;749.15;;;700.88;;
3591;SDS011;1810;48.720;9.094;2023-09-18T12:07:43;694.22;;;652.72;;
3591;SDS011;1810;48.720;9.094;2023-09-18T12:12:44;757.22;;;708.67;;
3591;SDS011;1810;48.720;9.094;2023-09-18T12:15:13;757.08;;;708.72;;
3591;SDS011;1810;48.720;9.094;2023-09-18T12:17:46;791.75;;;739.83;;
3591;SDS011;1810;48.720;9.094;2023-09-18T12:20:15;823.25;;;767.67;;
3591;SDS011;1810;48.720;9.094;2023-09-18T12:22:47;831.33;;;775.58;;
3591;SDS011;1810;48.720;9.094;2023-09-18T12:25:17;783.47;;;732.85;;
3591;SDS011;1810;48.720;9.094;2023-09-18T12:27:45;770.97;;;721.45;;
3591;SDS011;1810;48.720;9.094;2023-09-18T12:30:15;749.17;;;700.97;;
3591;SDS011;1810;48.720;9.094;2023-09-18T12:32:49;783.95;;;732.60;;
3591;SDS011;1810;48.720;9.094;2023-09-18T12:35:18;816.38;;;761.80;;
3591;SDS011;1810;48.720;9.094;2023-09-18T12:37:47;755.85;;;707.15;;
3591;SDS011;1810;48.720;9.094;2023-09-18T12:40:22;762.20;;;713.03;;
3591;SDS011;1810;48.720;9.094;2023-09-18T12:42:51;751.08;;;703.08;;
3591;SDS011;1810;48.720;9.094;2023-09-18T12:45:21;763.13;;;713.85;;
3591;SDS011;1810;48.720;9.094;2023-09-18T12:47:55;836.22;;;778.70;;
3591;SDS011;1810;48.720;9.094;2023-09-18T12:50:25;802.05;;;749.13;;
3591;SDS011;1810;48.720;9.094;2023-09-18T12:53:05;848.47;;;790.72;;
3591;SDS011;1810;48.720;9.094;2023-09-18T12:55:35;867.13;;;807.67;;
3591;SDS011;1810;48.720;9.094;2023-09-18T12:58:04;941.15;;;873.78;;
3591;SDS011;1810;48.720;9.094;2023-09-18T13:00:34;903.70;;;840.13;;
3591;SDS011;1810;48.720;9.094;2023-09-18T13:03:05;938.38;;;871.13;;
3591;SDS011;1810;48.720;9.094;2023-09-18T13:05:33;905.53;;;841.80;;
3591;SDS011;1810;48.720;9.094;2023-09-18T13:08:02;884.88;;;823.38;;
3591;SDS011;1810;48.720;9.094;2023-09-18T13:10:41;883.17;;;822.65;;
3591;SDS011;1810;48.720;9.094;2023-09-18T13:13:17;867.67;;;808.65;;
3591;SDS011;1810;48.720;9.094;2023-09-18T13:15:46;869.50;;;810.70;;
3591;SDS011;1810;48.720;9.094;2023-09-18T13:18:22;953.80;;;882.03;;
3591;SDS011;1810;48.720;9.094;2023-09-18T13:20:51;861.60;;;803.35;;
3591;SDS011;1810;48.720;9.094;2023-09-18T13:23:20;889.63;;;827.35;;
3591;SDS011;1810;48.720;9.094;2023-09-18T13:25:59;880.60;;;820.13;;
3591;SDS011;1810;48.720;9.094;2023-09-18T13:28:29;913.15;;;848.70;;
3591;SDS011;1810;48.720;9.094;2023-09-18T13:31:01;869.15;;;809.70;;
3591;SDS011;1810;48.720;9.094;2023-09-18T13:33:32;869.13;;;810.08;;
3591;SDS011;1810;48.720;9.094;2023-09-18T13:36:06;904.13;;;840.40;;
3591;SDS011;1810;48.720;9.094;2023-09-18T13:38:35;939.15;;;870.83;;
3591;SDS011;1810;48.720;9.094;2023-09-18T13:41:03;861.55;;;802.72;;
3591;SDS011;1810;48.720;9.094;2023-09-18T13:43:32;861.78;;;803.35;;
3591;SDS011;1810;48.720;9.094;2023-09-18T13:46:02;888.65;;;826.28;;
3591;SDS011;1810;48.720;9.094;2023-09-18T13:51:05;861.65;;;802.63;;
3591;SDS011;1810;48.720;9.094;2023-09-18T13:53:35;850.55;;;792.85;;
3591;SDS011;1810;48.720;9.094;2023-09-18T13:56:04;867.47;;;808.53;;
3591;SDS011;1810;48.720;9.094;2023-09-18T13:58:33;863.92;;;805.13;;
3591;SDS011;1810;48.720;9.094;2023-09-18T14:01:07;856.53;;;798.30;;
3591;SDS011;1810;48.720;9.094;2023-09-18T14:03:37;911.30;;;847.13;;
3591;SDS011;1810;48.720;9.094;2023-09-18T14:06:08;875.63;;;815.70;;
3591;SDS011;1810;48.720;9.094;2023-09-18T14:08:37;861.17;;;802.83;;
3591;SDS011;1810;48.720;9.094;2023-09-18T14:11:06;917.65;;;851.55;;
3591;SDS011;1810;48.720;9.094;2023-09-18T14:13:37;898.80;;;835.08;;
3591;SDS011;1810;48.720;9.094;2023-09-18T14:16:05;856.25;;;797.92;;
3591;SDS011;1810;48.720;9.094;2023-09-18T14:18:34;900.70;;;836.97;;
3591;SDS011;1810;48.720;9.094;2023-09-18T14:21:04;859.30;;;801.10;;
3591;SDS011;1810;48.720;9.094;2023-09-18T14:23:32;853.25;;;795.13;;
3591;SDS011;1810;48.720;9.094;2023-09-18T14:26:01;930.17;;;862.10;;
3591;SDS011;1810;48.720;9.094;2023-09-18T14:28:30;857.38;;;799.13;;
3591;SDS011;1810;48.720;9.094;2023-09-18T14:31:02;905.38;;;841.05;;
3591;SDS011;1810;48.720;9.094;2023-09-18T14:33:31;869.22;;;809.40;;
3591;SDS011;1810;48.720;9.094;2023-09-18T14:35:59;860.03;;;801.70;;
3591;SDS011;1810;48.720;9.094;2023-09-18T14:38:31;874.40;;;814.67;;
3591;SDS011;1810;48.720;9.094;2023-09-18T14:41:00;878.50;;;818.47;;
3591;SDS011;1810;48.720;9.094;2023-09-18T14:43:29;893.40;;;830.83;;
3591;SDS011;1810;48.720;9.094;2023-09-18T14:45:58;918.70;;;852.53;;
3591;SDS011;1810;48.720;9.094;2023-09-18T14:48:26;898.63;;;835.33;;
3591;SDS011;1810;48.720;9.094;2023-09-18T14:50:56;872.38;;;813.10;;
3591;SDS011;1810;48.720;9.094;2023-09-18T14:53:25;870.55;;;812.03;;
3591;SDS011;1810;48.720;9.094;2023-09-18T14:55:55;876.58;;;816.50;;